createdAt,value
2018-08-16T00:00:38.402Z,8.97
2018-08-16T00:03:06.601Z,9.10
2018-08-16T00:05:34.642Z,8.60
2018-08-16T00:08:02.705Z,9.20
2018-08-16T00:10:30.748Z,9.67
2018-08-16T00:12:58.786Z,9.40
2018-08-16T00:15:26.821Z,9.87
2018-08-16T00:17:54.869Z,9.60
2018-08-16T00:20:22.998Z,9.70
2018-08-16T00:22:51.021Z,9.20
2018-08-16T00:25:19.057Z,9.30
2018-08-16T00:27:47.097Z,9.17
2018-08-16T00:30:16.447Z,8.60
2018-08-16T00:32:44.829Z,8.83
2018-08-16T00:35:12.861Z,9.17
2018-08-16T00:37:41.141Z,8.70
2018-08-16T00:40:11.077Z,9.73
2018-08-16T00:42:39.131Z,8.47
2018-08-16T00:45:08.193Z,9.13
2018-08-16T00:47:36.370Z,8.43
2018-08-16T00:50:06.469Z,9.93
2018-08-16T00:52:35.129Z,9.53
2018-08-16T00:55:03.534Z,9.50
2018-08-16T00:57:31.573Z,8.80
2018-08-16T00:59:59.617Z,9.13
2018-08-16T01:02:27.646Z,9.60
2018-08-16T01:04:55.689Z,9.03
2018-08-16T01:07:23.941Z,8.50
2018-08-16T01:09:51.986Z,10.13
2018-08-16T01:12:20.633Z,9.70
2018-08-16T01:14:48.677Z,9.63
2018-08-16T01:17:16.769Z,9.60
2018-08-16T01:19:44.778Z,9.97
2018-08-16T01:22:12.849Z,9.33
2018-08-16T01:24:40.917Z,9.97
2018-08-16T01:27:08.961Z,10.23
2018-08-16T01:29:37.006Z,9.87
2018-08-16T01:32:05.072Z,10.00
2018-08-16T01:34:33.523Z,9.50
2018-08-16T01:37:01.556Z,10.60
2018-08-16T01:39:29.598Z,9.43
2018-08-16T01:41:57.650Z,9.70
2018-08-16T01:44:25.734Z,8.90
2018-08-16T01:46:54.079Z,9.10
2018-08-16T01:49:29.673Z,9.60
2018-08-16T01:51:57.906Z,10.87
2018-08-16T01:54:26.329Z,10.50
2018-08-16T01:56:54.430Z,9.43
2018-08-16T01:59:22.492Z,10.03
2018-08-16T02:01:51.046Z,11.07
2018-08-16T02:04:19.127Z,10.70
2018-08-16T02:06:47.706Z,10.20
2018-08-16T02:09:15.757Z,10.60
2018-08-16T02:11:43.827Z,11.20
2018-08-16T02:14:11.898Z,10.83
2018-08-16T02:16:40.089Z,10.20
2018-08-16T02:19:08.364Z,11.20
2018-08-16T02:21:36.841Z,10.77
2018-08-16T02:24:05.250Z,11.07
2018-08-16T02:26:33.485Z,11.67
2018-08-16T02:29:01.778Z,10.20
2018-08-16T02:31:29.847Z,10.40
2018-08-16T02:33:57.915Z,10.77
2018-08-16T02:36:26.399Z,11.20
2018-08-16T02:38:54.769Z,10.13
2018-08-16T02:41:22.849Z,10.00
2018-08-16T02:43:50.917Z,10.33
2018-08-16T02:46:18.974Z,10.03
2018-08-16T02:48:47.034Z,10.87
2018-08-16T02:51:15.287Z,11.63
2018-08-16T02:53:43.411Z,10.87
2018-08-16T02:56:11.473Z,10.03
2018-08-16T02:58:39.506Z,10.37
2018-08-16T03:01:07.584Z,12.30
2018-08-16T03:03:35.626Z,10.33
2018-08-16T03:06:03.732Z,10.53
2018-08-16T03:08:31.762Z,11.23
2018-08-16T03:10:59.828Z,11.30
2018-08-16T03:13:27.890Z,10.90
2018-08-16T03:15:55.941Z,10.30
2018-08-16T03:18:23.985Z,11.87
2018-08-16T03:20:52.137Z,11.13
2018-08-16T03:23:20.177Z,12.27
2018-08-16T03:25:48.233Z,10.93
2018-08-16T03:28:16.290Z,12.00
2018-08-16T03:30:44.363Z,11.33
2018-08-16T03:33:12.432Z,12.23
2018-08-16T03:35:40.481Z,12.03
2018-08-16T03:38:08.530Z,12.67
2018-08-16T03:40:36.598Z,11.97
2018-08-16T03:43:04.799Z,11.67
2018-08-16T03:45:32.861Z,12.10
2018-08-16T03:48:01.249Z,13.80
2018-08-16T03:50:29.499Z,12.10
2018-08-16T03:52:57.581Z,12.80
2018-08-16T03:55:25.792Z,12.60
2018-08-16T03:57:53.833Z,12.30
2018-08-16T04:00:21.896Z,12.60
2018-08-16T04:02:49.945Z,12.03
2018-08-16T04:05:18.226Z,13.53
2018-08-16T04:07:46.269Z,12.50
2018-08-16T04:10:14.321Z,12.80
2018-08-16T04:12:42.373Z,13.83
2018-08-16T04:15:10.444Z,14.03
2018-08-16T04:17:38.528Z,12.50
2018-08-16T04:20:07.030Z,13.10
2018-08-16T04:22:35.725Z,13.60
2018-08-16T04:25:04.317Z,13.20
2018-08-16T04:27:32.591Z,14.37
2018-08-16T04:30:02.573Z,13.00
2018-08-16T04:32:30.657Z,12.73
2018-08-16T04:34:59.066Z,13.90
2018-08-16T04:37:27.127Z,13.83
2018-08-16T04:39:55.224Z,14.20
2018-08-16T04:42:23.285Z,13.47
2018-08-16T04:44:51.341Z,13.13
2018-08-16T04:47:19.417Z,13.60
2018-08-16T04:49:47.482Z,12.80
2018-08-16T04:52:15.546Z,12.83
2018-08-16T04:54:43.606Z,14.00
2018-08-16T04:57:11.681Z,12.43
2018-08-16T04:59:39.738Z,13.90
2018-08-16T05:02:07.789Z,13.63
2018-08-16T05:04:35.896Z,14.10
2018-08-16T05:07:03.973Z,15.50
2018-08-16T05:09:32.037Z,14.20
2018-08-16T05:12:00.114Z,13.50
2018-08-16T05:14:28.190Z,14.90
2018-08-16T05:16:56.275Z,14.10
2018-08-16T05:19:24.342Z,15.17
2018-08-16T05:21:52.404Z,14.47
2018-08-16T05:24:21.318Z,15.00
2018-08-16T05:26:49.588Z,14.63
2018-08-16T05:29:17.653Z,14.50
2018-08-16T05:31:45.765Z,13.23
2018-08-16T05:34:13.771Z,15.50
2018-08-16T05:36:41.816Z,14.73
2018-08-16T05:39:11.921Z,14.17
2018-08-16T05:41:40.120Z,13.87
2018-08-16T05:44:08.477Z,14.60
2018-08-16T05:46:36.584Z,14.10
2018-08-16T05:49:04.661Z,15.27
2018-08-16T05:51:32.733Z,16.00
2018-08-16T05:54:00.798Z,14.67
2018-08-16T05:56:28.896Z,14.50
2018-08-16T05:58:56.936Z,16.63
2018-08-16T06:01:25.041Z,17.73
2018-08-16T06:03:53.133Z,15.27
2018-08-16T06:06:22.780Z,14.87
2018-08-16T06:08:50.829Z,18.47
2018-08-16T06:11:19.085Z,19.33
2018-08-16T06:13:47.301Z,15.30
2018-08-16T06:16:15.523Z,16.13
2018-08-16T06:18:43.601Z,14.43
2018-08-16T06:21:11.697Z,14.37
2018-08-16T06:23:39.762Z,14.80
2018-08-16T06:26:07.806Z,15.50
2018-08-16T06:28:35.878Z,15.60
2018-08-16T06:31:04.046Z,15.70
2018-08-16T06:33:32.230Z,16.50
2018-08-16T06:36:00.299Z,16.20
2018-08-16T06:38:28.366Z,14.60
2018-08-16T06:40:56.629Z,15.77
2018-08-16T06:43:24.716Z,17.70
2018-08-16T06:45:52.794Z,14.33
2018-08-16T06:48:20.880Z,14.20
2018-08-16T06:50:48.929Z,14.40
2018-08-16T06:53:16.990Z,14.23
2018-08-16T06:55:45.029Z,16.40
2018-08-16T06:58:13.103Z,14.50
2018-08-16T07:00:41.227Z,15.77
2018-08-16T07:03:09.577Z,14.43
2018-08-16T07:05:37.718Z,13.87
2018-08-16T07:08:06.281Z,13.93
2018-08-16T07:10:35.505Z,12.93
2018-08-16T07:13:03.566Z,15.60
2018-08-16T07:15:31.617Z,21.90
2018-08-16T07:17:59.709Z,15.20
2018-08-16T07:20:27.783Z,15.30
2018-08-16T07:22:55.889Z,14.37
2018-08-16T07:25:23.933Z,14.70
2018-08-16T07:27:52.029Z,15.17
2018-08-16T07:30:20.089Z,14.23
2018-08-16T07:32:48.148Z,14.37
2018-08-16T07:35:16.212Z,13.17
2018-08-16T07:37:44.284Z,13.37
2018-08-16T07:40:12.709Z,13.30
2018-08-16T07:42:40.763Z,12.57
2018-08-16T07:45:10.082Z,14.23
2018-08-16T07:47:38.305Z,15.33
2018-08-16T07:50:08.114Z,14.37
2018-08-16T07:52:36.191Z,15.20
2018-08-16T07:55:04.598Z,14.10
2018-08-16T07:57:32.673Z,14.93
2018-08-16T08:00:00.720Z,15.23
2018-08-16T08:02:28.765Z,15.63
2018-08-16T08:04:56.833Z,15.10
2018-08-16T08:07:24.911Z,15.93
2018-08-16T08:09:53.105Z,17.73
2018-08-16T08:12:21.025Z,15.83
2018-08-16T08:14:49.073Z,18.40
2018-08-16T08:17:17.135Z,18.90
2018-08-16T08:19:45.202Z,17.40
2018-08-16T08:22:13.922Z,17.17
2018-08-16T08:24:41.994Z,17.47
2018-08-16T08:27:10.142Z,20.77
2018-08-16T08:29:38.201Z,18.83
2018-08-16T08:32:06.593Z,17.90
2018-08-16T08:34:37.391Z,20.00
2018-08-16T08:37:17.912Z,17.57
2018-08-16T08:39:45.978Z,18.43
2018-08-16T08:42:14.715Z,21.37
2018-08-16T08:44:42.772Z,19.17
2018-08-16T08:47:10.829Z,18.60
2018-08-16T08:49:38.925Z,20.03
2018-08-16T08:52:06.966Z,19.70
2018-08-16T08:54:51.677Z,17.40
2018-08-16T08:57:31.970Z,20.00
2018-08-16T09:00:00.036Z,18.30
2018-08-16T09:02:28.102Z,17.80
2018-08-16T09:04:56.178Z,15.00
2018-08-16T09:07:24.654Z,15.20
2018-08-16T09:11:07.638Z,17.53
2018-08-16T09:13:47.126Z,16.03
2018-08-16T09:16:22.069Z,13.60
2018-08-16T09:18:50.166Z,14.70
2018-08-16T09:21:18.277Z,14.43
2018-08-16T09:23:46.479Z,14.27
2018-08-16T09:26:19.937Z,16.07
2018-08-16T09:28:47.995Z,13.60
2018-08-16T09:31:27.730Z,11.80
2018-08-16T09:34:19.721Z,10.97
2018-08-16T09:36:47.806Z,12.43
2018-08-16T09:39:15.903Z,10.80
2018-08-16T09:41:43.901Z,10.97
2018-08-16T09:44:11.938Z,9.50
2018-08-16T09:46:55.457Z,8.10
2018-08-16T09:49:23.497Z,8.90
2018-08-16T09:51:51.579Z,7.67
2018-08-16T09:54:19.624Z,7.87
2018-08-16T09:56:48.137Z,6.93
2018-08-16T09:59:16.624Z,7.40
2018-08-16T10:01:44.686Z,6.87
2018-08-16T10:04:12.811Z,7.03
2018-08-16T10:06:41.751Z,6.47
2018-08-16T10:09:11.744Z,5.43
2018-08-16T10:11:39.822Z,6.73
2018-08-16T10:14:07.890Z,5.30
2018-08-16T10:16:36.270Z,6.87
2018-08-16T10:19:04.615Z,6.53
2018-08-16T10:21:32.658Z,5.53
2018-08-16T10:24:00.785Z,5.43
2018-08-16T10:26:28.849Z,5.50
2018-08-16T10:28:56.921Z,6.53
2018-08-16T10:31:24.969Z,5.90
2018-08-16T10:33:53.229Z,5.30
2018-08-16T10:36:21.453Z,5.10
2018-08-16T10:38:49.530Z,5.60
2018-08-16T10:41:17.590Z,5.27
2018-08-16T10:43:45.665Z,5.80
2018-08-16T10:46:13.726Z,5.57
2018-08-16T10:48:41.801Z,5.10
2018-08-16T10:51:09.902Z,6.73
2018-08-16T10:53:37.971Z,5.40
2018-08-16T10:56:06.356Z,5.50
2018-08-16T10:58:34.473Z,5.33
2018-08-16T11:01:02.590Z,4.10
2018-08-16T11:03:30.985Z,4.40
2018-08-16T11:05:59.154Z,5.47
2018-08-16T11:08:27.214Z,4.87
2018-08-16T11:10:55.276Z,5.30
2018-08-16T11:13:23.368Z,4.40
2018-08-16T11:15:51.417Z,4.80
2018-08-16T11:18:19.487Z,4.07
2018-08-16T11:20:47.530Z,4.60
2018-08-16T11:23:15.696Z,4.97
2018-08-16T11:25:43.852Z,4.60
2018-08-16T11:28:11.897Z,4.93
2018-08-16T11:30:39.994Z,4.23
2018-08-16T11:33:08.530Z,4.50
2018-08-16T11:35:36.586Z,4.90
2018-08-16T11:38:04.749Z,4.70
2018-08-16T11:40:32.837Z,5.63
2018-08-16T11:43:00.891Z,5.00
2018-08-16T11:45:29.209Z,5.37
2018-08-16T11:47:57.257Z,5.97
2018-08-16T11:50:25.336Z,5.30
2018-08-16T11:52:53.374Z,4.40
2018-08-16T11:55:21.438Z,5.30
2018-08-16T11:57:49.509Z,5.20
2018-08-16T12:00:17.581Z,5.20
2018-08-16T12:02:45.662Z,4.80
2018-08-16T12:05:14.375Z,5.63
2018-08-16T12:07:42.683Z,5.23
2018-08-16T12:10:10.783Z,4.37
2018-08-16T12:12:38.826Z,5.17
2018-08-16T12:15:07.907Z,4.93
2018-08-16T12:17:35.943Z,4.80
2018-08-16T12:20:04.890Z,6.40
2018-08-16T12:22:32.975Z,4.57
2018-08-16T12:25:01.018Z,5.60
2018-08-16T12:27:30.104Z,6.50
2018-08-16T12:29:58.162Z,4.60
2018-08-16T12:32:26.422Z,6.40
2018-08-16T12:34:54.537Z,5.10
2018-08-16T12:37:22.558Z,5.13
2018-08-16T12:39:50.609Z,5.40
2018-08-16T12:42:18.742Z,5.60
2018-08-16T12:44:46.750Z,5.20
2018-08-16T12:47:16.080Z,5.10
2018-08-16T12:49:44.149Z,4.80
2018-08-16T12:52:12.210Z,5.87
2018-08-16T12:54:40.343Z,5.43
2018-08-16T12:57:08.401Z,5.53
2018-08-16T12:59:36.470Z,8.27
2018-08-16T13:02:04.537Z,4.50
2018-08-16T13:04:32.594Z,4.20
2018-08-16T13:07:00.642Z,4.20
2018-08-16T13:09:28.757Z,4.43
2018-08-16T13:11:56.823Z,5.10
2018-08-16T13:14:24.878Z,4.57
2018-08-16T13:16:53.657Z,4.50
2018-08-16T13:19:21.794Z,4.27
2018-08-16T13:21:49.894Z,4.50
2018-08-16T13:24:17.946Z,4.70
2018-08-16T13:26:46.013Z,4.33
2018-08-16T13:29:14.185Z,3.77
2018-08-16T13:31:42.257Z,6.40
2018-08-16T13:34:10.358Z,5.20
2018-08-16T13:36:38.439Z,3.90
2018-08-16T13:39:09.565Z,5.00
2018-08-16T13:41:37.753Z,5.90
2018-08-16T13:44:05.972Z,3.80
2018-08-16T13:46:34.414Z,4.90
2018-08-16T13:49:02.494Z,4.57
2018-08-16T13:51:30.577Z,4.40
2018-08-16T13:53:58.626Z,4.00
2018-08-16T13:56:26.686Z,5.20
2018-08-16T13:58:54.732Z,5.30
2018-08-16T14:01:22.860Z,4.40
2018-08-16T14:03:51.050Z,4.50
2018-08-16T14:06:19.100Z,4.70
2018-08-16T14:08:47.190Z,4.53
2018-08-16T14:11:15.287Z,3.37
2018-08-16T14:13:43.334Z,3.43
2018-08-16T14:16:11.400Z,3.97
2018-08-16T14:18:39.483Z,3.90
2018-08-16T14:21:07.856Z,4.60
2018-08-16T14:23:35.901Z,4.47
2018-08-16T14:26:03.984Z,4.30
2018-08-16T14:28:32.033Z,4.37
2018-08-16T14:31:00.318Z,4.30
2018-08-16T14:33:28.396Z,3.93
2018-08-16T14:35:56.483Z,3.80
2018-08-16T14:38:24.529Z,3.50
2018-08-16T14:40:52.885Z,3.67
2018-08-16T14:43:20.955Z,3.30
2018-08-16T14:45:49.053Z,3.27
2018-08-16T14:50:51.657Z,3.73
2018-08-16T14:53:19.722Z,3.77
2018-08-16T14:55:47.781Z,3.87
2018-08-16T14:58:22.464Z,3.90
2018-08-16T15:00:50.510Z,3.80
2018-08-16T15:03:18.558Z,3.40
2018-08-16T15:05:46.597Z,3.70
2018-08-16T15:08:14.674Z,4.30
2018-08-16T15:10:42.787Z,4.07
2018-08-16T15:13:10.812Z,3.30
2018-08-16T15:15:38.871Z,4.00
2018-08-16T15:18:06.986Z,3.67
2018-08-16T15:20:35.038Z,3.53
2018-08-16T15:23:03.118Z,3.33
2018-08-16T15:25:31.385Z,3.50
2018-08-16T15:27:59.448Z,3.43
2018-08-16T15:30:27.533Z,3.10
2018-08-16T15:32:55.589Z,3.40
2018-08-16T15:35:23.634Z,3.50
2018-08-16T15:37:51.822Z,3.97
2018-08-16T15:40:20.098Z,3.87
2018-08-16T15:42:48.156Z,3.83
2018-08-16T15:45:16.197Z,3.60
2018-08-16T15:47:44.252Z,3.47
2018-08-16T15:50:12.309Z,3.40
2018-08-16T15:52:40.403Z,3.10
2018-08-16T15:55:08.468Z,3.40
2018-08-16T15:57:36.521Z,3.93
2018-08-16T16:00:05.434Z,3.97
2018-08-16T16:02:33.494Z,3.60
2018-08-16T16:05:01.540Z,4.13
2018-08-16T16:07:29.606Z,3.20
2018-08-16T16:09:57.670Z,3.70
2018-08-16T16:12:25.763Z,3.93
2018-08-16T16:14:53.809Z,3.77
2018-08-16T16:17:21.964Z,3.77
2018-08-16T16:19:49.905Z,3.17
2018-08-16T16:22:18.014Z,3.20
2018-08-16T16:24:46.099Z,3.37
2018-08-16T16:27:14.134Z,3.63
2018-08-16T16:29:42.195Z,3.80
2018-08-16T16:32:10.929Z,4.03
2018-08-16T16:34:38.984Z,4.17
2018-08-16T16:37:07.449Z,4.00
2018-08-16T16:39:35.505Z,3.90
2018-08-16T16:42:03.561Z,4.93
2018-08-16T16:44:31.630Z,4.73
2018-08-16T16:46:59.702Z,6.20
2018-08-16T16:49:27.767Z,5.70
2018-08-16T16:51:55.809Z,5.97
2018-08-16T16:54:23.873Z,5.83
2018-08-16T16:56:52.144Z,5.20
2018-08-16T16:59:20.203Z,5.60
2018-08-16T17:01:48.253Z,5.47
2018-08-16T17:04:16.474Z,5.20
2018-08-16T17:06:44.458Z,5.10
2018-08-16T17:09:13.787Z,4.80
2018-08-16T17:11:42.394Z,5.27
2018-08-16T17:14:10.685Z,5.60
2018-08-16T17:16:38.739Z,6.50
2018-08-16T17:19:06.852Z,5.43
2018-08-16T17:21:34.950Z,6.10
2018-08-16T17:24:03.002Z,5.83
2018-08-16T17:26:31.268Z,6.80
2018-08-16T17:28:59.276Z,5.83
2018-08-16T17:31:27.382Z,6.70
2018-08-16T17:33:55.405Z,5.93
2018-08-16T17:36:23.457Z,6.00
2018-08-16T17:38:51.551Z,7.30
2018-08-16T17:41:19.611Z,6.97
2018-08-16T17:43:47.653Z,8.07
2018-08-16T17:46:15.729Z,8.10
2018-08-16T17:48:44.536Z,7.50
2018-08-16T17:51:13.563Z,8.20
2018-08-16T17:53:41.839Z,8.03
2018-08-16T17:56:09.988Z,7.63
2018-08-16T17:58:38.929Z,8.10
2018-08-16T18:01:07.040Z,8.00
2018-08-16T18:03:35.769Z,9.60
2018-08-16T18:06:04.086Z,8.93
2018-08-16T18:08:32.373Z,8.87
2018-08-16T18:11:00.414Z,9.23
2018-08-16T18:13:28.472Z,8.80
2018-08-16T18:15:56.549Z,10.07
2018-08-16T18:18:24.610Z,9.50
2018-08-16T18:20:52.657Z,10.17
2018-08-16T18:23:20.869Z,10.50
2018-08-16T18:25:48.923Z,9.20
2018-08-16T18:28:17.364Z,9.87
2018-08-16T18:30:45.473Z,10.43
2018-08-16T18:33:13.545Z,9.70
2018-08-16T18:35:41.590Z,9.70
2018-08-16T18:38:09.886Z,11.03
2018-08-16T18:40:38.713Z,9.73
2018-08-16T18:43:06.818Z,10.30
2018-08-16T18:45:34.850Z,10.23
2018-08-16T18:48:02.954Z,10.60
2018-08-16T18:50:31.002Z,10.50
2018-08-16T18:52:59.057Z,11.17
2018-08-16T18:55:27.169Z,11.17
2018-08-16T18:57:55.228Z,11.00
2018-08-16T19:00:23.283Z,11.80
2018-08-16T19:02:51.345Z,11.90
2018-08-16T19:05:19.463Z,13.37
2018-08-16T19:07:47.487Z,15.50
2018-08-16T19:10:15.557Z,16.90
2018-08-16T19:12:43.629Z,15.40
2018-08-16T19:15:11.686Z,15.73
2018-08-16T19:17:39.770Z,11.80
2018-08-16T19:20:08.257Z,13.73
2018-08-16T19:22:36.313Z,12.97
2018-08-16T19:25:05.562Z,13.43
2018-08-16T19:27:33.683Z,11.27
2018-08-16T19:30:02.795Z,12.73
2018-08-16T19:32:31.310Z,13.63
2018-08-16T19:34:59.377Z,13.10
2018-08-16T19:37:27.425Z,12.63
2018-08-16T19:39:55.497Z,12.80
2018-08-16T19:42:23.562Z,13.60
2018-08-16T19:44:51.618Z,13.10
2018-08-16T19:47:19.697Z,13.63
2018-08-16T19:49:47.749Z,13.70
2018-08-16T19:52:15.958Z,13.43
2018-08-16T19:54:44.550Z,13.00
2018-08-16T19:57:12.626Z,13.50
2018-08-16T19:59:40.698Z,13.73
2018-08-16T20:02:08.778Z,14.30
2018-08-16T20:04:36.909Z,13.10
2018-08-16T20:07:06.610Z,13.97
2018-08-16T20:09:34.672Z,13.93
2018-08-16T20:12:02.724Z,15.07
2018-08-16T20:14:30.938Z,13.80
2018-08-16T20:16:58.996Z,13.30
2018-08-16T20:19:27.093Z,13.60
2018-08-16T20:21:55.125Z,13.00
2018-08-16T20:24:23.516Z,15.07
2018-08-16T20:26:51.549Z,14.27
2018-08-16T20:29:19.602Z,13.93
2018-08-16T20:31:47.835Z,14.17
2018-08-16T20:34:15.886Z,13.63
2018-08-16T20:36:43.930Z,13.73
2018-08-16T20:39:13.913Z,14.40
2018-08-16T20:41:42.118Z,13.40
2018-08-16T20:44:10.385Z,11.87
2018-08-16T20:46:38.449Z,12.77
2018-08-16T20:49:06.501Z,13.43
2018-08-16T20:51:34.561Z,13.27
2018-08-16T20:54:02.632Z,13.63
2018-08-16T20:56:30.685Z,13.73
2018-08-16T20:58:58.806Z,13.77
2018-08-16T21:01:26.862Z,13.37
2018-08-16T21:03:54.912Z,13.50
2018-08-16T21:06:22.982Z,13.10
2018-08-16T21:08:51.038Z,13.60
2018-08-16T21:11:19.089Z,12.50
2018-08-16T21:13:47.158Z,13.00
2018-08-16T21:16:15.254Z,12.30
2018-08-16T21:18:43.330Z,12.80
2018-08-16T21:21:12.358Z,13.63
2018-08-16T21:23:40.400Z,13.40
2018-08-16T21:26:08.449Z,12.47
2018-08-16T21:28:36.507Z,12.87
2018-08-16T21:31:04.572Z,13.57
2018-08-16T21:33:32.633Z,11.53
2018-08-16T21:36:00.694Z,11.53
2018-08-16T21:38:28.736Z,11.70
2018-08-16T21:40:56.774Z,12.33
2018-08-16T21:43:24.833Z,11.77
2018-08-16T21:45:52.871Z,11.30
2018-08-16T21:48:20.936Z,11.20
2018-08-16T21:50:49.195Z,11.17
2018-08-16T21:53:17.241Z,10.57
2018-08-16T21:55:45.295Z,11.00
2018-08-16T21:58:13.363Z,11.13
2018-08-16T22:00:51.430Z,11.00
2018-08-16T22:03:21.708Z,12.00
2018-08-16T22:05:56.662Z,10.67
2018-08-16T22:08:26.305Z,12.77
2018-08-16T22:10:54.362Z,11.40
2018-08-16T22:13:22.417Z,11.87
2018-08-16T22:15:50.449Z,12.00
2018-08-16T22:18:18.525Z,11.50
2018-08-16T22:20:46.583Z,11.23
2018-08-16T22:23:14.658Z,13.30
2018-08-16T22:25:42.736Z,14.40
2018-08-16T22:28:11.272Z,12.50
2018-08-16T22:30:39.305Z,13.10
2018-08-16T22:33:07.684Z,12.00
2018-08-16T22:35:35.709Z,12.80
2018-08-16T22:38:03.762Z,12.50
2018-08-16T22:40:31.830Z,11.63
2018-08-16T22:42:59.876Z,12.80
2018-08-16T22:45:27.924Z,12.30
2018-08-16T22:47:55.975Z,14.23
2018-08-16T22:50:24.033Z,14.03
2018-08-16T22:52:52.628Z,13.77
2018-08-16T22:55:20.685Z,12.83
2018-08-16T22:57:48.745Z,13.63
2018-08-16T23:00:16.988Z,14.40
2018-08-16T23:02:45.038Z,14.60
2018-08-16T23:05:13.194Z,13.70
2018-08-16T23:07:41.249Z,13.87
2018-08-16T23:10:09.301Z,15.40
2018-08-16T23:12:37.359Z,14.23
2018-08-16T23:15:05.813Z,16.00
2018-08-16T23:17:33.880Z,16.27
2018-08-16T23:20:01.918Z,15.70
2018-08-16T23:22:29.990Z,17.60
2018-08-16T23:24:58.033Z,15.87
2018-08-16T23:27:26.093Z,16.03
2018-08-16T23:29:54.149Z,16.50
2018-08-16T23:32:22.222Z,15.70
2018-08-16T23:34:50.289Z,15.90
2018-08-16T23:37:18.341Z,16.67
2018-08-16T23:39:46.605Z,15.93
2018-08-16T23:42:14.669Z,16.00
2018-08-16T23:44:42.731Z,17.27
2018-08-16T23:47:10.896Z,16.27
2018-08-16T23:49:39.002Z,17.23
2018-08-16T23:52:07.057Z,16.03
2018-08-16T23:54:35.100Z,17.70
2018-08-16T23:57:03.185Z,15.70
2018-08-16T23:59:31.245Z,16.73
